Terminal Aerodrome Forecast
Issued by NWS

Home | Current Version | Previous Version | Text Only | Print | Product List | Glossary On
Versions: 1 2 3 4 5 6 7 8 9 10 11 12 13 14 15 16 17 18 19 20
466
FTUS43 KPAH 230520
TAFCGI
TAF
KCGI 230520Z 2306/2406 00000KT P6SM SCT250
      TEMPO 2307/2311 4SM BR
     FM231400 15003KT P6SM SCT035
     FM240100 00000KT P6SM SKC=

USA.gov is the U.S. government's official web portal to all federal, state and local government web resources and services.